createdAt,value
2023-06-17T00:01:40.877Z,4.58
2023-06-17T00:04:08.606Z,4.19
2023-06-17T00:06:37.741Z,3.52
2023-06-17T00:09:05.668Z,4.74
2023-06-17T00:11:33.342Z,4.26
2023-06-17T00:14:01.921Z,3.71
2023-06-17T00:16:29.660Z,3.63
2023-06-17T00:18:57.821Z,3.91
2023-06-17T00:21:25.477Z,3.78
2023-06-17T00:23:54.527Z,4.17
2023-06-17T00:26:22.630Z,4.36
2023-06-17T00:28:50.291Z,4.04
2023-06-17T00:31:17.938Z,3.79
2023-06-17T00:33:45.697Z,3.81
2023-06-17T00:36:13.333Z,3.85
2023-06-17T00:38:41.288Z,3.89
2023-06-17T00:41:10.352Z,4.16
2023-06-17T00:43:38.125Z,4.35
2023-06-17T00:46:05.936Z,4.43
2023-06-17T00:48:34.510Z,4.02
2023-06-17T00:51:03.252Z,4.16
2023-06-17T00:53:32.057Z,6.46
2023-06-17T00:56:00.186Z,5.70
2023-06-17T00:58:29.651Z,5.57
2023-06-17T01:00:57.407Z,5.87
2023-06-17T01:03:25.966Z,6.11
2023-06-17T01:05:57.826Z,5.78
2023-06-17T01:08:30.403Z,5.98
2023-06-17T01:11:02.099Z,5.77
2023-06-17T01:13:32.913Z,6.02
2023-06-17T01:16:01.920Z,5.70
2023-06-17T01:18:30.912Z,5.51
2023-06-17T01:21:00.336Z,5.64
2023-06-17T01:23:33.141Z,6.17
2023-06-17T01:26:02.806Z,5.79
2023-06-17T01:28:31.243Z,5.36
2023-06-17T01:30:59.809Z,5.31
2023-06-17T01:33:27.958Z,5.96
2023-06-17T01:36:01.007Z,5.31
2023-06-17T01:38:32.571Z,5.18
2023-06-17T01:41:04.137Z,5.02
2023-06-17T01:43:33.702Z,5.11
2023-06-17T01:46:03.065Z,5.10
2023-06-17T01:48:30.881Z,5.29
2023-06-17T01:51:01.360Z,5.09
2023-06-17T01:53:29.054Z,5.48
2023-06-17T01:55:56.776Z,5.15
2023-06-17T01:58:25.877Z,5.64
2023-06-17T02:00:53.530Z,5.56
2023-06-17T02:03:21.499Z,5.50
2023-06-17T02:05:49.212Z,5.97
2023-06-17T02:08:16.935Z,5.61
2023-06-17T02:10:44.648Z,5.36
2023-06-17T02:13:12.355Z,5.46
2023-06-17T02:15:43.739Z,4.99
2023-06-17T02:18:11.903Z,3.94
2023-06-17T02:20:39.635Z,5.85
2023-06-17T02:23:10.182Z,4.45
2023-06-17T02:25:40.777Z,3.44
2023-06-17T02:28:08.754Z,4.00
2023-06-17T02:30:36.569Z,3.74
2023-06-17T02:33:05.681Z,3.96
2023-06-17T02:35:33.656Z,3.45
2023-06-17T02:38:01.582Z,3.64
2023-06-17T02:40:29.232Z,3.98
2023-06-17T02:42:56.906Z,3.69
2023-06-17T02:45:24.518Z,3.78
2023-06-17T02:47:52.305Z,4.45
2023-06-17T02:50:24.431Z,4.12
2023-06-17T02:52:56.919Z,4.19
2023-06-17T02:55:26.465Z,4.26
2023-06-17T02:57:54.259Z,4.19
2023-06-17T03:00:22.967Z,4.31
2023-06-17T03:02:51.536Z,3.94
2023-06-17T03:05:19.538Z,4.38
2023-06-17T03:07:48.898Z,4.68
2023-06-17T03:10:19.322Z,5.34
2023-06-17T03:12:47.306Z,6.51
2023-06-17T03:15:18.805Z,6.85
2023-06-17T03:17:47.154Z,7.89
2023-06-17T03:20:15.216Z,7.96
2023-06-17T03:22:42.995Z,7.88
2023-06-17T03:25:12.147Z,8.40
2023-06-17T03:27:39.793Z,8.56
2023-06-17T03:30:08.070Z,8.53
2023-06-17T03:32:36.409Z,8.41
2023-06-17T03:35:05.459Z,7.96
2023-06-17T03:37:33.184Z,8.56
2023-06-17T03:40:00.824Z,8.44
2023-06-17T03:42:29.830Z,8.22
2023-06-17T03:44:57.493Z,8.49
2023-06-17T03:47:25.157Z,8.93
2023-06-17T03:49:52.863Z,8.86
2023-06-17T03:52:20.527Z,8.77
2023-06-17T03:54:48.196Z,9.28
2023-06-17T03:57:15.827Z,9.82
2023-06-17T03:59:44.845Z,9.81
2023-06-17T04:02:13.158Z,10.56
2023-06-17T04:04:41.320Z,10.28
2023-06-17T04:07:12.691Z,10.54
2023-06-17T04:09:45.722Z,10.34
2023-06-17T04:12:18.813Z,10.73
2023-06-17T04:14:47.838Z,10.28
2023-06-17T04:17:20.441Z,10.71
2023-06-17T04:19:49.044Z,11.13
2023-06-17T04:22:16.682Z,11.00
2023-06-17T04:24:44.385Z,10.60
2023-06-17T04:27:13.138Z,10.37
2023-06-17T04:29:40.836Z,11.00
2023-06-17T04:32:11.495Z,11.04
2023-06-17T04:34:39.184Z,10.72
2023-06-17T04:37:07.232Z,10.63
2023-06-17T04:39:35.899Z,10.65
2023-06-17T04:42:04.085Z,10.56
2023-06-17T04:44:32.646Z,10.76
2023-06-17T04:47:00.761Z,10.51
2023-06-17T04:49:30.281Z,10.81
2023-06-17T04:51:58.065Z,10.76
2023-06-17T04:54:32.134Z,11.14
2023-06-17T04:57:00.497Z,11.16
2023-06-17T04:59:28.171Z,11.68
2023-06-17T05:01:58.899Z,10.96
2023-06-17T05:04:26.590Z,11.01
2023-06-17T05:06:55.592Z,11.31
2023-06-17T05:09:23.810Z,11.23
2023-06-17T05:11:51.574Z,11.02
2023-06-17T05:14:21.947Z,11.49
2023-06-17T05:16:49.640Z,12.34
2023-06-17T05:19:17.363Z,12.90
2023-06-17T05:21:45.019Z,12.91
2023-06-17T05:24:14.100Z,12.35
2023-06-17T05:26:42.057Z,12.45
2023-06-17T05:29:09.915Z,11.98
2023-06-17T05:31:37.564Z,11.87
2023-06-17T05:34:05.231Z,11.97
2023-06-17T05:36:32.882Z,11.88
2023-06-17T05:39:00.591Z,12.65
2023-06-17T05:41:29.675Z,12.34
2023-06-17T05:43:57.308Z,12.77
2023-06-17T05:46:25.113Z,12.10
2023-06-17T05:48:52.774Z,12.36
2023-06-17T05:51:20.579Z,12.13
2023-06-17T05:53:48.250Z,12.20
2023-06-17T05:56:15.934Z,12.17
2023-06-17T05:58:44.952Z,11.79
2023-06-17T06:01:12.690Z,12.70
2023-06-17T06:03:40.396Z,12.43
2023-06-17T06:06:08.144Z,12.09
2023-06-17T06:08:35.877Z,12.28
2023-06-17T06:11:03.594Z,11.78
2023-06-17T06:13:31.273Z,11.56
2023-06-17T06:16:00.624Z,11.28
2023-06-17T06:18:29.205Z,11.59
2023-06-17T06:20:56.913Z,11.98
2023-06-17T06:23:24.811Z,11.33
2023-06-17T06:25:52.477Z,11.02
2023-06-17T06:28:20.166Z,11.15
2023-06-17T06:30:48.295Z,11.08
2023-06-17T06:33:17.317Z,10.86
2023-06-17T06:35:45.040Z,10.62
2023-06-17T06:38:12.683Z,9.70
2023-06-17T06:40:41.474Z,9.74
2023-06-17T06:43:09.151Z,9.46
2023-06-17T06:45:37.104Z,9.98
2023-06-17T06:48:05.200Z,9.71
2023-06-17T06:50:35.830Z,8.71
2023-06-17T06:53:03.608Z,8.22
2023-06-17T06:55:31.302Z,8.78
2023-06-17T06:57:59.014Z,8.41
2023-06-17T07:00:26.802Z,7.94
2023-06-17T07:02:54.593Z,8.23
2023-06-17T07:05:23.719Z,8.50
2023-06-17T07:07:52.767Z,8.53
2023-06-17T07:10:20.681Z,8.05
2023-06-17T07:12:48.471Z,8.29
2023-06-17T07:15:16.769Z,8.06
2023-06-17T07:17:44.502Z,7.76
2023-06-17T07:20:12.614Z,7.51
2023-06-17T07:22:40.313Z,7.71
2023-06-17T07:25:10.991Z,7.31
2023-06-17T07:27:38.761Z,7.94
2023-06-17T07:30:07.124Z,7.31
2023-06-17T07:32:34.825Z,7.45
2023-06-17T07:35:02.926Z,7.81
2023-06-17T07:37:30.769Z,7.56
2023-06-17T07:39:58.566Z,7.90
2023-06-17T07:42:27.688Z,7.99
2023-06-17T07:44:55.365Z,7.64
2023-06-17T07:47:23.116Z,7.96
2023-06-17T07:49:51.496Z,8.04
2023-06-17T07:52:19.174Z,8.11
2023-06-17T07:54:49.015Z,8.16
2023-06-17T07:57:16.754Z,8.27
2023-06-17T07:59:46.678Z,9.08
2023-06-17T08:02:14.470Z,8.16
2023-06-17T08:04:42.181Z,8.18
2023-06-17T08:07:09.894Z,8.20
2023-06-17T08:09:37.543Z,8.17
2023-06-17T08:12:06.784Z,7.51
2023-06-17T08:14:34.412Z,7.54
2023-06-17T08:17:03.495Z,7.77
2023-06-17T08:19:31.137Z,7.88
2023-06-17T08:21:58.802Z,8.04
2023-06-17T08:24:27.227Z,8.07
2023-06-17T08:26:55.616Z,7.42
2023-06-17T08:29:23.434Z,7.21
2023-06-17T08:31:52.482Z,7.70
2023-06-17T08:34:22.774Z,7.46
2023-06-17T08:36:53.498Z,7.61
2023-06-17T08:39:21.129Z,7.37
2023-06-17T08:41:49.060Z,7.59
2023-06-17T08:44:16.706Z,7.48
2023-06-17T08:46:45.882Z,7.30
2023-06-17T08:49:14.309Z,7.06
2023-06-17T08:51:44.780Z,7.19
2023-06-17T08:54:12.617Z,7.17
2023-06-17T08:56:40.548Z,7.82
2023-06-17T08:59:08.681Z,7.04
2023-06-17T09:01:37.418Z,7.47
2023-06-17T09:04:05.446Z,7.58
2023-06-17T09:06:33.107Z,7.37
2023-06-17T09:09:02.293Z,7.11
2023-06-17T09:11:31.439Z,7.44
2023-06-17T09:14:00.094Z,7.66
2023-06-17T09:16:28.875Z,7.66
2023-06-17T09:19:01.778Z,7.59
2023-06-17T09:21:29.891Z,8.28
2023-06-17T09:23:58.386Z,7.71
2023-06-17T09:26:28.664Z,8.18
2023-06-17T09:29:01.210Z,8.35
2023-06-17T09:31:29.817Z,8.31
2023-06-17T09:33:58.025Z,8.13
2023-06-17T09:36:26.404Z,7.65
2023-06-17T09:38:54.268Z,7.58
2023-06-17T09:41:24.542Z,7.42
2023-06-17T09:43:55.030Z,7.43
2023-06-17T09:46:30.716Z,7.53
2023-06-17T09:48:59.406Z,7.56
2023-06-17T09:51:27.552Z,7.61
2023-06-17T09:53:56.693Z,7.96
2023-06-17T09:56:24.583Z,7.31
2023-06-17T09:58:54.543Z,7.49
2023-06-17T10:01:26.059Z,7.31
2023-06-17T10:03:53.838Z,8.32
2023-06-17T10:06:22.083Z,8.25
2023-06-17T10:08:51.339Z,7.41
2023-06-17T10:11:20.833Z,7.27
2023-06-17T10:13:55.574Z,7.52
2023-06-17T10:16:28.331Z,7.43
2023-06-17T10:18:59.293Z,7.37
2023-06-17T10:21:29.330Z,7.68
2023-06-17T10:23:58.929Z,7.74
2023-06-17T10:26:26.964Z,7.30
2023-06-17T10:29:02.456Z,7.63
2023-06-17T10:31:32.493Z,7.51
2023-06-17T10:34:02.943Z,7.50
2023-06-17T10:36:30.627Z,7.74
2023-06-17T10:39:00.148Z,7.54
2023-06-17T10:41:51.800Z,7.45
2023-06-17T10:44:44.377Z,6.97
2023-06-17T10:47:21.729Z,7.57
2023-06-17T10:49:51.062Z,7.51
2023-06-17T10:52:19.480Z,7.49
2023-06-17T10:54:47.936Z,7.27
2023-06-17T10:57:16.152Z,7.33
2023-06-17T10:59:43.819Z,6.96
2023-06-17T11:02:11.597Z,6.71
2023-06-17T11:04:42.912Z,7.12
2023-06-17T11:07:11.098Z,7.01
2023-06-17T11:09:38.812Z,7.29
2023-06-17T11:12:08.945Z,7.31
2023-06-17T11:14:38.666Z,7.61
2023-06-17T11:17:06.572Z,7.67
2023-06-17T11:19:34.246Z,7.13
2023-06-17T11:22:04.685Z,7.30
2023-06-17T11:24:33.228Z,7.14
2023-06-17T11:27:01.603Z,6.92
2023-06-17T11:29:31.082Z,7.08
2023-06-17T11:32:00.684Z,6.57
2023-06-17T11:34:32.564Z,6.85
2023-06-17T11:37:01.565Z,6.79
2023-06-17T11:39:31.217Z,6.94
2023-06-17T11:42:02.798Z,6.96
2023-06-17T11:44:30.904Z,7.18
2023-06-17T11:47:04.017Z,7.26
2023-06-17T11:49:31.906Z,6.84
2023-06-17T11:52:02.195Z,7.06
2023-06-17T11:54:31.316Z,7.33
2023-06-17T11:56:58.990Z,6.87
2023-06-17T11:59:26.692Z,6.78
2023-06-17T12:01:56.573Z,7.01
2023-06-17T12:04:24.516Z,6.87
2023-06-17T12:06:53.948Z,7.09
2023-06-17T12:09:22.408Z,7.03
2023-06-17T12:11:51.465Z,7.36
2023-06-17T12:14:21.702Z,7.01
2023-06-17T12:16:49.365Z,7.10
2023-06-17T12:19:23.012Z,6.99
2023-06-17T12:21:50.863Z,7.05
2023-06-17T12:24:18.924Z,7.09
2023-06-17T12:26:46.631Z,7.30
2023-06-17T12:29:25.563Z,6.87
2023-06-17T12:31:54.058Z,7.00
2023-06-17T12:34:21.857Z,6.93
2023-06-17T12:36:49.753Z,6.96
2023-06-17T12:39:17.474Z,7.20
2023-06-17T12:41:45.220Z,6.70
2023-06-17T12:44:12.885Z,7.02
2023-06-17T12:46:42.464Z,6.89
2023-06-17T12:49:10.307Z,6.92
2023-06-17T12:51:37.980Z,7.10
2023-06-17T12:54:06.145Z,7.13
2023-06-17T12:56:33.968Z,7.08
2023-06-17T12:59:02.076Z,7.43
2023-06-17T13:01:30.289Z,7.18
2023-06-17T13:03:59.619Z,7.53
2023-06-17T13:06:27.642Z,7.44
2023-06-17T13:08:55.367Z,7.29
2023-06-17T13:11:23.186Z,7.27
2023-06-17T13:13:51.383Z,7.32
2023-06-17T13:16:19.208Z,7.38
2023-06-17T13:18:46.890Z,7.22
2023-06-17T13:21:16.000Z,7.13
2023-06-17T13:23:43.784Z,6.88
2023-06-17T13:26:11.896Z,6.87
2023-06-17T13:28:39.815Z,7.24
2023-06-17T13:31:07.884Z,6.60
2023-06-17T13:33:35.532Z,7.21
2023-06-17T13:36:03.266Z,7.13
2023-06-17T13:38:32.230Z,6.92
2023-06-17T13:40:59.952Z,7.29
2023-06-17T13:43:27.600Z,6.78
2023-06-17T13:45:55.335Z,6.89
2023-06-17T13:48:23.100Z,6.86
2023-06-17T13:50:50.863Z,7.28
2023-06-17T13:53:18.509Z,7.05
2023-06-17T13:55:47.740Z,6.97
2023-06-17T13:58:15.589Z,6.90
2023-06-17T14:00:43.251Z,6.79
2023-06-17T14:03:12.737Z,6.84
2023-06-17T14:05:44.948Z,7.07
2023-06-17T14:08:12.685Z,7.22
2023-06-17T14:10:40.361Z,7.13
2023-06-17T14:13:09.422Z,7.50
2023-06-17T14:15:37.113Z,7.14
2023-06-17T14:18:04.928Z,7.30
2023-06-17T14:20:33.835Z,7.18
2023-06-17T14:23:02.453Z,7.26
2023-06-17T14:25:30.066Z,7.23
2023-06-17T14:27:58.429Z,7.11
2023-06-17T14:30:27.697Z,7.57
2023-06-17T14:32:55.399Z,7.37
2023-06-17T14:35:23.214Z,7.43
2023-06-17T14:37:51.172Z,7.59
2023-06-17T14:40:18.999Z,7.38
2023-06-17T14:42:47.069Z,7.68
2023-06-17T14:45:17.064Z,7.36
2023-06-17T14:47:46.463Z,7.30
2023-06-17T14:50:14.506Z,7.31
2023-06-17T14:52:42.714Z,7.16
2023-06-17T14:55:10.730Z,7.57
2023-06-17T14:57:38.390Z,7.49
2023-06-17T15:00:06.874Z,7.41
2023-06-17T15:02:54.333Z,7.73
2023-06-17T15:05:22.631Z,7.55
2023-06-17T15:07:50.642Z,7.35
2023-06-17T15:10:18.592Z,7.57
2023-06-17T15:12:47.047Z,7.19
2023-06-17T15:15:15.063Z,7.58
2023-06-17T15:17:43.194Z,7.40
2023-06-17T15:20:12.534Z,7.73
2023-06-17T15:22:40.690Z,7.51
2023-06-17T15:25:09.163Z,7.86
2023-06-17T15:27:36.859Z,7.22
2023-06-17T15:30:04.838Z,7.47
2023-06-17T15:32:32.529Z,7.49
2023-06-17T15:35:00.615Z,7.35
2023-06-17T15:37:32.009Z,7.18
2023-06-17T15:40:00.619Z,7.22
2023-06-17T15:42:28.244Z,7.36
2023-06-17T15:44:55.890Z,7.41
2023-06-17T15:47:23.551Z,7.51
2023-06-17T15:49:51.228Z,7.50
2023-06-17T15:52:18.934Z,7.65
2023-06-17T15:54:47.974Z,7.47
2023-06-17T15:57:16.409Z,8.00
2023-06-17T15:59:44.048Z,7.85
2023-06-17T16:02:12.178Z,7.77
2023-06-17T16:04:40.423Z,7.64
2023-06-17T16:07:09.236Z,7.47
2023-06-17T16:09:38.281Z,7.47
2023-06-17T16:12:08.369Z,7.60
2023-06-17T16:14:36.838Z,7.82
2023-06-17T16:17:06.776Z,7.72
2023-06-17T16:19:36.611Z,7.46
2023-06-17T16:22:05.007Z,7.38
2023-06-17T16:24:33.184Z,8.06
2023-06-17T16:27:01.186Z,8.02
2023-06-17T16:29:30.348Z,7.96
2023-06-17T16:31:58.042Z,8.04
2023-06-17T16:34:25.907Z,8.08
2023-06-17T16:36:53.575Z,8.31
2023-06-17T16:39:21.348Z,8.20
2023-06-17T16:41:49.191Z,8.01
2023-06-17T16:44:17.010Z,8.04
2023-06-17T16:46:47.140Z,8.14
2023-06-17T16:49:14.869Z,8.14
2023-06-17T16:51:42.512Z,8.00
2023-06-17T16:54:10.209Z,7.98
2023-06-17T16:56:38.931Z,7.76
2023-06-17T16:59:06.690Z,8.44
2023-06-17T17:01:34.369Z,8.02
2023-06-17T17:04:10.212Z,7.93
2023-06-17T17:06:37.937Z,7.67
2023-06-17T17:09:05.961Z,8.09
2023-06-17T17:11:33.914Z,7.99
2023-06-17T17:14:01.628Z,8.14
2023-06-17T17:16:29.728Z,8.40
2023-06-17T17:18:57.418Z,8.27
2023-06-17T17:21:27.327Z,8.49
2023-06-17T17:23:54.986Z,8.52
2023-06-17T17:26:22.638Z,7.91
2023-06-17T17:28:50.972Z,8.07
2023-06-17T17:31:18.625Z,7.84
2023-06-17T17:33:46.297Z,7.97
2023-06-17T17:36:14.779Z,7.98
2023-06-17T17:38:44.285Z,8.03
2023-06-17T17:41:12.337Z,8.04
2023-06-17T17:43:40.157Z,8.73
2023-06-17T17:46:10.337Z,8.54
2023-06-17T17:48:38.096Z,8.19
2023-06-17T17:51:05.821Z,9.43
2023-06-17T17:53:33.493Z,10.54
2023-06-17T17:56:02.555Z,10.18
2023-06-17T17:58:30.191Z,11.08
2023-06-17T18:01:02.700Z,11.66
2023-06-17T18:03:30.596Z,10.71
2023-06-17T18:05:58.467Z,9.87
2023-06-17T18:08:26.143Z,11.82
2023-06-17T18:10:53.789Z,12.57
2023-06-17T18:13:22.808Z,11.70
2023-06-17T18:15:50.485Z,10.61
2023-06-17T18:18:18.162Z,8.98
2023-06-17T18:20:45.804Z,9.83
2023-06-17T18:23:13.471Z,10.96
2023-06-17T18:25:41.166Z,9.64
2023-06-17T18:28:08.813Z,9.84
2023-06-17T18:30:40.986Z,7.12
2023-06-17T18:33:08.716Z,7.81
2023-06-17T18:35:36.452Z,5.89
2023-06-17T18:38:04.088Z,5.63
2023-06-17T18:40:31.715Z,5.97
2023-06-17T18:42:59.412Z,6.22
2023-06-17T18:45:27.046Z,6.20
2023-06-17T18:47:56.132Z,5.68
2023-06-17T18:50:24.155Z,6.33
2023-06-17T18:52:52.137Z,6.45
2023-06-17T18:55:19.834Z,6.92
2023-06-17T18:57:47.534Z,6.95
2023-06-17T19:00:15.531Z,7.49
2023-06-17T19:02:43.309Z,7.61
2023-06-17T19:05:12.350Z,7.39
2023-06-17T19:07:43.556Z,7.82
2023-06-17T19:10:12.084Z,7.51
2023-06-17T19:12:40.089Z,7.41
2023-06-17T19:15:10.255Z,7.40
2023-06-17T19:17:38.895Z,7.11
2023-06-17T19:20:07.377Z,7.26
2023-06-17T19:22:37.491Z,7.39
2023-06-17T19:25:05.523Z,7.13
2023-06-17T19:27:33.711Z,6.85
2023-06-17T19:30:02.848Z,7.04
2023-06-17T19:32:31.488Z,7.67
2023-06-17T19:35:00.624Z,7.59
2023-06-17T19:37:29.764Z,7.36
2023-06-17T19:39:59.525Z,7.40
2023-06-17T19:42:27.174Z,7.64
2023-06-17T19:44:57.928Z,7.21
2023-06-17T19:47:27.481Z,7.19
2023-06-17T19:49:56.753Z,7.75
2023-06-17T19:52:24.512Z,7.62
2023-06-17T19:54:52.429Z,7.57
2023-06-17T19:57:21.469Z,7.58
2023-06-17T19:59:51.620Z,7.22
2023-06-17T20:02:20.410Z,7.34
2023-06-17T20:04:48.273Z,5.58
2023-06-17T20:07:15.910Z,5.14
2023-06-17T20:09:43.571Z,5.80
2023-06-17T20:12:12.410Z,5.66
2023-06-17T20:14:42.093Z,5.56
2023-06-17T20:17:12.879Z,5.37
2023-06-17T20:19:40.815Z,5.81
2023-06-17T20:22:08.606Z,5.52
2023-06-17T20:24:36.372Z,5.54
2023-06-17T20:27:04.294Z,6.57
2023-06-17T20:29:32.132Z,5.87
2023-06-17T20:32:01.115Z,6.56
2023-06-17T20:34:28.844Z,6.01
2023-06-17T20:36:56.494Z,6.00
2023-06-17T20:39:24.153Z,5.83
2023-06-17T20:41:51.792Z,5.61
2023-06-17T20:44:19.454Z,5.20
2023-06-17T20:46:47.226Z,5.93
2023-06-17T20:49:16.395Z,5.32
2023-06-17T20:51:44.066Z,5.17
2023-06-17T20:54:11.747Z,4.87
2023-06-17T20:56:39.486Z,5.47
2023-06-17T20:59:07.872Z,4.89
2023-06-17T21:01:35.721Z,5.01
2023-06-17T21:04:03.704Z,6.46
2023-06-17T21:06:32.762Z,5.57
2023-06-17T21:09:01.094Z,5.89
2023-06-17T21:11:28.929Z,6.53
2023-06-17T21:13:56.565Z,5.20
2023-06-17T21:16:24.247Z,5.46
2023-06-17T21:18:51.959Z,5.72
2023-06-17T21:21:19.618Z,4.82
2023-06-17T21:23:48.879Z,4.32
2023-06-17T21:26:16.654Z,4.76
2023-06-17T21:28:47.020Z,5.81
2023-06-17T21:31:14.833Z,6.86
2023-06-17T21:33:42.541Z,6.54
2023-06-17T21:36:10.200Z,6.27
2023-06-17T21:38:37.887Z,6.76
2023-06-17T21:41:06.879Z,6.31
2023-06-17T21:43:34.971Z,6.61
2023-06-17T21:46:02.751Z,8.16
2023-06-17T21:48:32.569Z,7.50
2023-06-17T21:51:00.542Z,7.82
2023-06-17T21:53:28.239Z,8.48
2023-06-17T21:55:55.997Z,7.43
2023-06-17T21:58:28.092Z,7.33
2023-06-17T22:00:58.214Z,7.89
2023-06-17T22:03:25.952Z,7.49
2023-06-17T22:05:56.182Z,9.20
2023-06-17T22:08:30.686Z,4.25
2023-06-17T22:11:06.104Z,4.40
2023-06-17T22:13:35.150Z,6.28
2023-06-17T22:16:02.888Z,5.47
2023-06-17T22:18:30.630Z,5.63
2023-06-17T22:20:58.283Z,5.03
2023-06-17T22:23:25.974Z,5.05
2023-06-17T22:25:56.701Z,5.27
2023-06-17T22:28:24.714Z,6.67
2023-06-17T22:30:53.744Z,5.85
2023-06-17T22:33:21.521Z,5.17
2023-06-17T22:35:49.184Z,5.64
2023-06-17T22:38:17.298Z,5.31
2023-06-17T22:40:44.950Z,4.88
2023-06-17T22:43:14.482Z,5.23
2023-06-17T22:45:42.199Z,4.87
2023-06-17T22:48:11.183Z,5.49
2023-06-17T22:50:38.833Z,5.01
2023-06-17T22:53:06.609Z,5.49
2023-06-17T22:55:34.300Z,4.87
2023-06-17T22:58:01.960Z,5.70
2023-06-17T23:00:29.666Z,5.84
2023-06-17T23:02:57.497Z,6.53
2023-06-17T23:05:26.815Z,5.76
2023-06-17T23:07:54.461Z,5.86
2023-06-17T23:10:22.516Z,5.55
2023-06-17T23:12:50.345Z,5.85
2023-06-17T23:15:18.161Z,5.37
2023-06-17T23:17:45.844Z,5.05
2023-06-17T23:20:13.752Z,4.97
2023-06-17T23:22:42.766Z,5.23
2023-06-17T23:25:11.180Z,5.49
2023-06-17T23:27:38.903Z,5.19
2023-06-17T23:30:07.692Z,5.72
2023-06-17T23:32:35.458Z,6.07
2023-06-17T23:35:03.243Z,5.90
2023-06-17T23:37:30.893Z,5.91
2023-06-17T23:39:59.918Z,7.54
2023-06-17T23:42:27.567Z,9.40
2023-06-17T23:44:55.195Z,9.79
2023-06-17T23:47:23.347Z,9.94
2023-06-17T23:49:53.792Z,10.53
2023-06-17T23:52:22.131Z,9.99
2023-06-17T23:54:49.883Z,10.27
2023-06-17T23:57:19.320Z,9.89
2023-06-17T23:59:46.970Z,10.51
